Terminal Aerodrome Forecast
Issued by NWS Twin Cities, MN

Home | Current Version | Previous Version | Text Only | Print | Product List | Glossary On
Versions: 1 2 3 4 5 6 7 8 9 10 11 12 13 14 15 16 17 18 19 20 21
306
FTUS43 KMPX 171134
TAFSTC
TAF
KSTC 171134Z 1712/1812 00000KT P6SM OVC012
     FM171500 00000KT 5SM BR OVC008
     FM172000 21003KT P6SM OVC010
     FM180600 18006KT P6SM SCT200=

USA.gov is the U.S. government's official web portal to all federal, state and local government web resources and services.